Dogwood City, Texas
Current Conditions -  °F | °C
As of 3:36 PM on Saturday 20 Dec 2014 (Local Time) from KTYR Reporting Station
Scattered Clouds Scattered Clouds  
Wind Chill: 12°   Ceiling: Unl
Heat Index: 12°   Visibility: 10mi
Dew Point:   Wind: 5mph
Humidity: 64%   Direction: 60°ENE
Pressure: 30.17"   Gusts: NA
Location:  32.2242°N, 95.404°W
Report Text: KTYR 202136Z 06004KT 10SM SCT022 12/06 A3017 RMK AO2 T01220056
Loading
Personal Weather Stations






























Interactive Weather Map New forecast layout! Learn more

10-Day Weather Forecast

Advertisements
Track Severe Weather on mobile